createdAt,value
2018-08-22T00:02:08.277Z,2.60
2018-08-22T00:04:35.736Z,2.57
2018-08-22T00:07:03.192Z,2.43
2018-08-22T00:09:30.656Z,2.67
2018-08-22T00:11:58.869Z,2.60
2018-08-22T00:14:26.332Z,2.30
2018-08-22T00:16:53.878Z,2.40
2018-08-22T00:19:21.412Z,2.67
2018-08-22T00:21:48.883Z,2.30
2018-08-22T00:24:16.341Z,2.60
2018-08-22T00:26:43.809Z,2.80
2018-08-22T00:29:11.271Z,2.77
2018-08-22T00:31:38.752Z,2.43
2018-08-22T00:34:06.279Z,2.70
2018-08-22T00:36:33.776Z,3.00
2018-08-22T00:39:01.580Z,2.67
2018-08-22T00:41:29.348Z,2.40
2018-08-22T00:43:57.583Z,2.27
2018-08-22T00:46:25.031Z,2.90
2018-08-22T00:48:52.472Z,2.43
2018-08-22T00:51:19.928Z,2.80
2018-08-22T00:53:47.380Z,2.53
2018-08-22T00:56:14.928Z,2.50
2018-08-22T00:58:42.404Z,2.77
2018-08-22T01:01:09.842Z,2.80
2018-08-22T01:03:37.360Z,2.60
2018-08-22T01:06:04.860Z,2.10
2018-08-22T01:08:32.360Z,3.23
2018-08-22T01:10:59.821Z,3.17
2018-08-22T01:13:27.255Z,2.47
2018-08-22T01:15:55.084Z,2.50
2018-08-22T01:18:22.540Z,2.30
2018-08-22T01:20:49.992Z,2.60
2018-08-22T01:23:17.460Z,2.47
2018-08-22T01:25:44.901Z,2.40
2018-08-22T01:28:12.341Z,2.43
2018-08-22T01:30:39.787Z,2.63
2018-08-22T01:33:07.232Z,2.43
2018-08-22T01:35:34.684Z,2.63
2018-08-22T01:38:02.128Z,2.73
2018-08-22T01:40:29.564Z,2.93
2018-08-22T01:42:57.052Z,2.33
2018-08-22T01:45:24.527Z,2.20
2018-08-22T01:47:51.963Z,2.30
2018-08-22T01:50:19.456Z,2.70
2018-08-22T01:52:46.899Z,2.63
2018-08-22T01:55:14.344Z,2.60
2018-08-22T01:57:42.183Z,2.87
2018-08-22T02:00:09.735Z,2.80
2018-08-22T02:02:37.500Z,2.60
2018-08-22T02:05:05.084Z,2.00
2018-08-22T02:07:32.601Z,2.50
2018-08-22T02:10:00.119Z,2.50
2018-08-22T02:12:27.655Z,2.90
2018-08-22T02:14:55.123Z,2.67
2018-08-22T02:17:22.600Z,2.10
2018-08-22T02:19:50.053Z,2.60
2018-08-22T02:22:17.485Z,2.33
2018-08-22T02:24:44.957Z,1.97
2018-08-22T02:27:12.468Z,2.30
2018-08-22T02:29:39.984Z,2.20
2018-08-22T02:32:07.527Z,2.70
2018-08-22T02:34:35.380Z,2.20
2018-08-22T02:37:02.839Z,2.60
2018-08-22T02:39:30.340Z,2.50
2018-08-22T02:41:58.595Z,2.23
2018-08-22T02:44:26.007Z,2.40
2018-08-22T02:46:53.529Z,2.80
2018-08-22T02:49:20.987Z,2.50
2018-08-22T02:51:48.428Z,2.27
2018-08-22T02:54:15.908Z,2.40
2018-08-22T02:56:43.824Z,2.23
2018-08-22T02:59:11.492Z,3.37
2018-08-22T03:01:38.953Z,2.40
2018-08-22T03:04:06.397Z,2.30
2018-08-22T03:06:33.885Z,2.20
2018-08-22T03:09:01.328Z,2.53
2018-08-22T03:11:28.800Z,2.20
2018-08-22T03:13:56.324Z,2.57
2018-08-22T03:16:23.760Z,2.50
2018-08-22T03:18:51.416Z,2.20
2018-08-22T03:21:18.849Z,2.20
2018-08-22T03:23:46.898Z,2.30
2018-08-22T03:26:14.336Z,2.90
2018-08-22T03:28:42.247Z,2.53
2018-08-22T03:31:09.707Z,2.50
2018-08-22T03:33:37.163Z,2.93
2018-08-22T03:36:04.643Z,2.17
2018-08-22T03:38:34.460Z,2.00
2018-08-22T03:41:01.986Z,2.20
2018-08-22T03:43:29.489Z,2.53
2018-08-22T03:45:57.094Z,2.40
2018-08-22T03:48:24.684Z,2.87
2018-08-22T03:50:52.316Z,2.30
2018-08-22T03:53:20.134Z,2.33
2018-08-22T03:55:47.753Z,1.70
2018-08-22T03:58:15.199Z,2.20
2018-08-22T04:00:42.735Z,2.40
2018-08-22T04:03:10.339Z,2.00
2018-08-22T04:05:37.899Z,2.60
2018-08-22T04:08:05.444Z,2.23
2018-08-22T04:10:32.896Z,2.70
2018-08-22T04:13:00.467Z,2.50
2018-08-22T04:15:27.956Z,2.80
2018-08-22T04:17:55.437Z,2.53
2018-08-22T04:20:22.895Z,2.53
2018-08-22T04:22:50.591Z,3.17
2018-08-22T04:25:18.070Z,2.40
2018-08-22T04:27:45.492Z,2.90
2018-08-22T04:30:12.948Z,2.87
2018-08-22T04:32:40.576Z,3.00
2018-08-22T04:35:08.064Z,2.40
2018-08-22T04:37:35.535Z,2.77
2018-08-22T04:40:03.061Z,2.70
2018-08-22T04:42:30.537Z,2.73
2018-08-22T04:44:58.008Z,2.80
2018-08-22T04:47:25.514Z,2.97
2018-08-22T04:49:52.977Z,2.80
2018-08-22T04:52:22.201Z,2.90
2018-08-22T04:54:50.421Z,2.40
2018-08-22T04:57:17.856Z,3.20
2018-08-22T04:59:45.352Z,3.10
2018-08-22T05:02:12.816Z,2.53
2018-08-22T05:04:40.515Z,2.50
2018-08-22T05:07:08.107Z,2.50
2018-08-22T05:09:35.564Z,2.80
2018-08-22T05:12:03.416Z,2.57
2018-08-22T05:14:31.010Z,2.67
2018-08-22T05:16:58.532Z,2.30
2018-08-22T05:19:26.495Z,2.70
2018-08-22T05:21:54.745Z,3.73
2018-08-22T05:24:22.200Z,3.23
2018-08-22T05:26:50.289Z,2.40
2018-08-22T05:29:17.828Z,2.70
2018-08-22T05:31:45.652Z,2.60
2018-08-22T05:34:13.188Z,2.60
2018-08-22T05:36:40.612Z,2.23
2018-08-22T05:39:09.700Z,3.30
2018-08-22T05:41:37.112Z,3.50
2018-08-22T05:44:04.600Z,3.50
2018-08-22T05:46:32.080Z,2.47
2018-08-22T05:48:59.575Z,2.10
2018-08-22T05:51:27.176Z,2.70
2018-08-22T05:53:54.678Z,2.63
2018-08-22T05:56:22.167Z,2.70
2018-08-22T05:58:50.380Z,2.40
2018-08-22T06:01:17.808Z,2.73
2018-08-22T06:03:45.371Z,2.43
2018-08-22T06:06:12.815Z,2.73
2018-08-22T06:08:40.344Z,2.80
2018-08-22T06:11:07.831Z,2.97
2018-08-22T06:13:35.340Z,2.63
2018-08-22T06:16:02.804Z,2.60
2018-08-22T06:18:30.233Z,2.50
2018-08-22T06:20:57.690Z,2.80
2018-08-22T06:23:25.165Z,3.80
2018-08-22T06:25:52.612Z,2.40
2018-08-22T06:28:20.120Z,2.77
2018-08-22T06:30:47.567Z,2.97
2018-08-22T06:33:14.987Z,2.63
2018-08-22T06:35:42.436Z,2.50
2018-08-22T06:38:09.860Z,2.63
2018-08-22T06:40:37.336Z,2.60
2018-08-22T06:43:04.796Z,2.90
2018-08-22T06:45:32.228Z,2.60
2018-08-22T06:47:59.976Z,2.60
2018-08-22T06:50:27.404Z,3.30
2018-08-22T06:52:54.890Z,2.40
2018-08-22T06:55:22.362Z,2.60
2018-08-22T06:57:49.862Z,3.00
2018-08-22T07:00:17.406Z,2.50
2018-08-22T07:02:44.879Z,2.43
2018-08-22T07:05:12.339Z,3.93
2018-08-22T07:07:39.883Z,2.53
2018-08-22T07:10:07.336Z,3.33
2018-08-22T07:12:34.792Z,2.50
2018-08-22T07:15:02.270Z,2.90
2018-08-22T07:17:29.748Z,2.13
2018-08-22T07:19:57.200Z,2.37
2018-08-22T07:22:24.658Z,2.47
2018-08-22T07:24:52.195Z,2.00
2018-08-22T07:27:20.055Z,2.63
2018-08-22T07:29:47.519Z,2.53
2018-08-22T07:32:14.961Z,2.80
2018-08-22T07:34:42.439Z,2.40
2018-08-22T07:37:09.943Z,2.77
2018-08-22T07:39:37.444Z,2.00
2018-08-22T07:42:05.236Z,3.70
2018-08-22T07:44:32.691Z,2.50
2018-08-22T07:47:04.737Z,2.80
2018-08-22T07:49:32.200Z,2.67
2018-08-22T07:51:59.668Z,2.53
2018-08-22T07:54:34.658Z,2.20
2018-08-22T07:57:02.285Z,2.50
2018-08-22T07:59:29.989Z,2.43
2018-08-22T08:01:57.721Z,2.50
2018-08-22T08:04:25.149Z,2.70
2018-08-22T08:06:52.701Z,2.40
2018-08-22T08:09:20.184Z,3.47
2018-08-22T08:11:47.672Z,2.77
2018-08-22T08:14:15.093Z,3.30
2018-08-22T08:16:42.564Z,2.60
2018-08-22T08:19:10.128Z,2.20
2018-08-22T08:21:37.628Z,2.90
2018-08-22T08:24:05.770Z,2.30
2018-08-22T08:26:33.270Z,2.90
2018-08-22T08:29:00.729Z,2.60
2018-08-22T08:31:28.273Z,2.63
2018-08-22T08:33:55.752Z,2.03
2018-08-22T08:36:23.162Z,2.30
2018-08-22T08:38:51.243Z,2.20
2018-08-22T08:41:18.750Z,2.20
2018-08-22T08:43:46.200Z,2.53
2018-08-22T08:46:13.744Z,2.63
2018-08-22T08:48:41.216Z,2.67
2018-08-22T08:51:08.708Z,2.40
2018-08-22T08:53:36.132Z,2.43
2018-08-22T08:56:03.617Z,2.40
2018-08-22T08:58:31.136Z,2.27
2018-08-22T09:00:58.696Z,2.57
2018-08-22T09:03:26.166Z,2.43
2018-08-22T09:05:53.668Z,2.07
2018-08-22T09:08:21.134Z,1.90
2018-08-22T09:10:48.659Z,2.30
2018-08-22T09:13:16.784Z,2.27
2018-08-22T09:15:44.303Z,3.03
2018-08-22T09:18:11.712Z,2.57
2018-08-22T09:20:39.843Z,2.40
2018-08-22T09:23:07.351Z,2.10
2018-08-22T09:25:34.901Z,2.30
2018-08-22T09:28:02.512Z,2.20
2018-08-22T09:30:29.992Z,1.83
2018-08-22T09:32:57.486Z,2.00
2018-08-22T09:35:25.012Z,1.77
2018-08-22T09:37:52.467Z,1.70
2018-08-22T09:40:19.942Z,1.40
2018-08-22T09:42:47.841Z,1.70
2018-08-22T09:45:15.303Z,1.37
2018-08-22T09:47:43.155Z,1.50
2018-08-22T09:50:11.039Z,1.40
2018-08-22T09:52:38.500Z,1.30
2018-08-22T09:55:06.730Z,1.37
2018-08-22T09:57:34.224Z,1.40
2018-08-22T10:00:01.768Z,1.23
2018-08-22T10:02:29.225Z,1.20
2018-08-22T10:04:58.142Z,1.43
2018-08-22T10:07:25.709Z,1.40
2018-08-22T10:09:53.178Z,1.40
2018-08-22T10:12:29.873Z,2.20
2018-08-22T10:14:57.397Z,1.37
2018-08-22T10:17:25.038Z,1.37
2018-08-22T10:19:52.833Z,1.63
2018-08-22T10:22:20.321Z,1.53
2018-08-22T10:24:47.739Z,1.20
2018-08-22T10:27:15.228Z,1.60
2018-08-22T10:29:42.704Z,1.20
2018-08-22T10:32:10.211Z,1.67
2018-08-22T10:34:37.686Z,1.97
2018-08-22T10:37:05.143Z,1.60
2018-08-22T10:39:32.746Z,2.27
2018-08-22T10:42:00.261Z,1.37
2018-08-22T10:44:27.788Z,1.90
2018-08-22T10:46:55.562Z,1.50
2018-08-22T10:49:23.176Z,1.60
2018-08-22T10:51:50.664Z,1.77
2018-08-22T10:54:18.423Z,1.90
2018-08-22T10:56:46.075Z,1.80
2018-08-22T10:59:13.560Z,1.93
2018-08-22T11:01:41.258Z,1.80
2018-08-22T11:04:08.857Z,2.00
2018-08-22T11:06:36.471Z,2.10
2018-08-22T11:09:06.288Z,2.20
2018-08-22T11:11:33.929Z,1.90
2018-08-22T11:14:01.492Z,2.27
2018-08-22T11:16:29.158Z,14.73
2018-08-22T11:18:56.648Z,2.80
2018-08-22T11:21:35.572Z,2.50
2018-08-22T11:24:14.571Z,2.00
2018-08-22T11:26:53.600Z,2.60
2018-08-22T11:29:32.711Z,2.53
2018-08-22T11:32:11.684Z,3.33
2018-08-22T11:34:44.435Z,3.00
2018-08-22T11:37:13.079Z,3.47
2018-08-22T11:39:42.496Z,3.30
2018-08-22T11:42:09.999Z,3.50
2018-08-22T11:44:37.592Z,3.27
2018-08-22T11:47:05.059Z,2.70
2018-08-22T11:49:32.788Z,2.17
2018-08-22T11:52:00.492Z,3.07
2018-08-22T11:54:28.636Z,2.80
2018-08-22T11:56:56.104Z,3.10
2018-08-22T11:59:23.607Z,2.70
2018-08-22T12:01:51.265Z,2.97
2018-08-22T12:04:18.901Z,3.10
2018-08-22T12:06:46.353Z,3.00
2018-08-22T12:09:13.832Z,3.70
2018-08-22T12:11:42.110Z,3.90
2018-08-22T12:14:09.587Z,4.07
2018-08-22T12:16:37.048Z,5.17
2018-08-22T12:19:04.651Z,3.83
2018-08-22T12:21:32.184Z,3.57
2018-08-22T12:23:59.699Z,4.70
2018-08-22T12:26:27.185Z,4.17
2018-08-22T12:28:54.799Z,3.87
2018-08-22T12:31:22.319Z,4.13
2018-08-22T12:33:49.849Z,4.17
2018-08-22T12:36:17.314Z,3.90
2018-08-22T12:38:45.059Z,3.80
2018-08-22T12:41:12.583Z,3.53
2018-08-22T12:43:41.066Z,4.27
2018-08-22T12:46:08.750Z,4.37
2018-08-22T12:48:36.300Z,4.30
2018-08-22T12:51:04.143Z,3.33
2018-08-22T12:53:31.657Z,3.70
2018-08-22T12:55:59.112Z,4.13
2018-08-22T12:58:26.615Z,4.67
2018-08-22T13:00:54.076Z,4.70
2018-08-22T13:03:21.559Z,4.70
2018-08-22T13:05:49.372Z,3.87
2018-08-22T13:08:16.836Z,4.30
2018-08-22T13:10:44.310Z,4.10
2018-08-22T13:13:12.340Z,4.90
2018-08-22T13:15:39.971Z,4.40
2018-08-22T13:18:07.444Z,5.07
2018-08-22T13:20:35.064Z,5.00
2018-08-22T13:23:02.946Z,5.23
2018-08-22T13:25:30.458Z,3.93
2018-08-22T13:27:57.921Z,4.00
2018-08-22T13:30:25.474Z,4.70
2018-08-22T13:32:53.583Z,4.37
2018-08-22T13:35:21.106Z,5.20
2018-08-22T13:37:48.560Z,5.47
2018-08-22T13:40:16.191Z,4.90
2018-08-22T13:42:43.635Z,4.90
2018-08-22T13:45:11.092Z,4.97
2018-08-22T13:47:38.592Z,4.53
2018-08-22T13:50:06.114Z,7.83
2018-08-22T13:52:33.625Z,5.93
2018-08-22T13:55:01.156Z,4.87
2018-08-22T13:57:28.679Z,4.63
2018-08-22T13:59:56.153Z,5.47
2018-08-22T14:02:23.733Z,4.70
2018-08-22T14:04:51.824Z,5.13
2018-08-22T14:07:19.441Z,5.23
2018-08-22T14:09:47.208Z,5.00
2018-08-22T14:12:14.744Z,5.50
2018-08-22T14:14:42.224Z,5.20
2018-08-22T14:17:09.769Z,5.07
2018-08-22T14:19:37.605Z,8.30
2018-08-22T14:22:05.264Z,6.27
2018-08-22T14:24:33.003Z,8.80
2018-08-22T14:27:00.530Z,5.03
2018-08-22T14:29:28.040Z,4.33
2018-08-22T14:31:55.655Z,4.67
2018-08-22T14:34:23.195Z,5.00
2018-08-22T14:36:50.823Z,4.60
2018-08-22T14:39:18.645Z,4.93
2018-08-22T14:41:46.179Z,4.90
2018-08-22T14:44:13.747Z,5.33
2018-08-22T14:46:41.564Z,4.53
2018-08-22T14:49:09.135Z,5.10
2018-08-22T14:51:37.066Z,4.20
2018-08-22T14:54:04.809Z,4.60
2018-08-22T14:56:32.412Z,3.90
2018-08-22T14:59:00.201Z,4.83
2018-08-22T15:01:27.921Z,4.90
2018-08-22T15:03:55.444Z,5.13
2018-08-22T15:06:22.946Z,5.20
2018-08-22T15:09:00.524Z,4.70
2018-08-22T15:11:28.584Z,5.60
2018-08-22T15:13:56.196Z,4.70
2018-08-22T15:16:23.840Z,5.07
2018-08-22T15:18:51.429Z,4.90
2018-08-22T15:21:18.955Z,5.60
2018-08-22T15:23:46.411Z,4.10
2018-08-22T15:26:13.872Z,5.00
2018-08-22T15:28:41.355Z,4.50
2018-08-22T15:31:08.852Z,5.23
2018-08-22T15:33:36.307Z,4.83
2018-08-22T15:36:03.811Z,4.47
2018-08-22T15:38:31.292Z,5.17
2018-08-22T15:40:58.778Z,4.27
2018-08-22T15:43:26.237Z,4.87
2018-08-22T15:45:53.690Z,4.80
2018-08-22T15:48:21.144Z,5.30
2018-08-22T15:50:48.613Z,4.80
2018-08-22T15:53:16.137Z,5.20
2018-08-22T15:55:43.559Z,4.67
2018-08-22T15:58:11.009Z,5.10
2018-08-22T16:00:42.560Z,6.30
2018-08-22T16:03:10.356Z,5.90
2018-08-22T16:05:38.936Z,5.67
2018-08-22T16:08:06.746Z,5.40
2018-08-22T16:10:34.248Z,5.00
2018-08-22T16:13:01.950Z,4.60
2018-08-22T16:15:34.719Z,4.40
2018-08-22T16:18:07.100Z,6.30
2018-08-22T16:20:42.248Z,4.93
2018-08-22T16:23:09.704Z,4.87
2018-08-22T16:25:43.376Z,4.93
2018-08-22T16:28:10.911Z,5.10
2018-08-22T16:30:38.386Z,4.80
2018-08-22T16:33:05.977Z,5.20
2018-08-22T16:35:33.484Z,4.40
2018-08-22T16:38:03.127Z,5.27
2018-08-22T16:40:35.241Z,5.37
2018-08-22T16:43:02.779Z,4.60
2018-08-22T16:45:30.832Z,5.27
2018-08-22T16:47:58.305Z,4.80
2018-08-22T16:50:25.901Z,4.90
2018-08-22T16:52:54.252Z,5.03
2018-08-22T16:55:22.919Z,5.27
2018-08-22T16:57:51.128Z,4.53
2018-08-22T17:00:31.712Z,4.70
2018-08-22T17:02:59.217Z,5.23
2018-08-22T17:05:26.720Z,4.93
2018-08-22T17:07:54.277Z,5.37
2018-08-22T17:10:21.793Z,6.07
2018-08-22T17:12:49.321Z,5.40
2018-08-22T17:15:16.853Z,5.23
2018-08-22T17:17:44.640Z,4.83
2018-08-22T17:20:12.271Z,4.90
2018-08-22T17:22:39.752Z,4.40
2018-08-22T17:25:07.635Z,5.10
2018-08-22T17:27:35.288Z,5.37
2018-08-22T17:30:02.923Z,4.90
2018-08-22T17:32:30.769Z,4.70
2018-08-22T17:34:58.617Z,4.83
2018-08-22T17:37:26.400Z,5.07
2018-08-22T17:39:53.906Z,4.60
2018-08-22T17:42:21.359Z,5.10
2018-08-22T17:44:48.798Z,5.10
2018-08-22T17:47:16.307Z,4.47
2018-08-22T17:50:18.607Z,5.90
2018-08-22T17:52:46.060Z,5.90
2018-08-22T17:55:13.623Z,5.60
2018-08-22T17:57:41.537Z,6.13
2018-08-22T18:00:18.916Z,6.40
2018-08-22T18:02:48.232Z,6.10
2018-08-22T18:05:15.723Z,5.90
2018-08-22T18:07:43.879Z,7.47
2018-08-22T18:10:11.497Z,5.87
2018-08-22T18:12:39.914Z,6.43
2018-08-22T18:15:07.525Z,9.37
2018-08-22T18:17:34.995Z,8.33
2018-08-22T18:20:02.604Z,8.70
2018-08-22T18:22:32.501Z,7.80
2018-08-22T18:25:00.000Z,10.77
2018-08-22T18:27:27.740Z,8.40
2018-08-22T18:29:55.163Z,9.83
2018-08-22T18:32:22.611Z,10.20
2018-08-22T18:35:03.057Z,8.33
2018-08-22T18:37:31.271Z,10.43
2018-08-22T18:40:24.623Z,9.50
2018-08-22T18:42:55.445Z,10.00
2018-08-22T18:45:23.641Z,10.30
2018-08-22T18:47:51.275Z,9.77
2018-08-22T18:50:19.082Z,9.93
2018-08-22T18:52:49.393Z,10.57
2018-08-22T18:55:16.988Z,10.00
2018-08-22T18:57:44.758Z,11.53
2018-08-22T19:00:12.257Z,12.90
2018-08-22T19:02:39.724Z,12.30
2018-08-22T19:05:20.644Z,14.13
2018-08-22T19:08:02.052Z,12.60
2018-08-22T19:10:32.046Z,13.43
2018-08-22T19:13:05.217Z,14.53
2018-08-22T19:15:33.383Z,15.50
2018-08-22T19:18:01.568Z,13.67
2018-08-22T19:20:29.033Z,14.17
2018-08-22T19:22:56.989Z,16.73
2018-08-22T19:25:24.710Z,15.10
2018-08-22T19:27:52.199Z,15.27
2018-08-22T19:30:19.758Z,15.23
2018-08-22T19:32:47.321Z,15.13
2018-08-22T19:35:15.220Z,17.97
2018-08-22T19:37:44.243Z,18.50
2018-08-22T19:40:11.745Z,17.27
2018-08-22T19:42:40.216Z,18.10
2018-08-22T19:45:09.237Z,22.10
2018-08-22T19:47:38.126Z,19.27
2018-08-22T19:50:06.425Z,20.93
2018-08-22T19:52:33.905Z,19.83
2018-08-22T19:55:03.644Z,20.70
2018-08-22T19:57:34.329Z,20.30
2018-08-22T20:00:03.412Z,19.73
2018-08-22T20:02:30.987Z,20.47
2018-08-22T20:04:58.537Z,20.70
2018-08-22T20:07:26.155Z,22.40
2018-08-22T20:09:54.970Z,22.07
2018-08-22T20:12:33.920Z,23.13
2018-08-22T20:15:01.600Z,24.53
2018-08-22T20:17:29.512Z,23.60
2018-08-22T20:19:57.017Z,22.70
2018-08-22T20:22:29.277Z,25.10
2018-08-22T20:24:58.739Z,26.73
2018-08-22T20:27:26.216Z,28.60
2018-08-22T20:29:58.500Z,28.63
2018-08-22T20:32:28.921Z,29.57
2018-08-22T20:34:58.158Z,28.00
2018-08-22T20:37:25.689Z,27.17
2018-08-22T20:39:59.357Z,28.30
2018-08-22T20:42:27.074Z,29.50
2018-08-22T20:44:55.762Z,30.83
2018-08-22T20:47:23.336Z,28.97
2018-08-22T20:49:51.349Z,32.00
2018-08-22T20:52:18.912Z,31.77
2018-08-22T20:54:53.649Z,28.93
2018-08-22T20:57:21.888Z,30.33
2018-08-22T20:59:49.456Z,31.50
2018-08-22T21:02:17.906Z,28.87
2018-08-22T21:04:46.075Z,29.27
2018-08-22T21:07:14.149Z,31.27
2018-08-22T21:09:41.654Z,30.40
2018-08-22T21:12:09.201Z,30.30
2018-08-22T21:14:36.778Z,32.60
2018-08-22T21:17:04.236Z,31.83
2018-08-22T21:19:31.757Z,29.53
2018-08-22T21:21:59.296Z,31.10
2018-08-22T21:24:26.805Z,33.07
2018-08-22T21:26:55.750Z,34.03
2018-08-22T21:29:23.244Z,32.70
2018-08-22T21:31:50.715Z,31.90
2018-08-22T21:34:20.169Z,34.30
2018-08-22T21:36:47.731Z,33.53
2018-08-22T21:39:20.988Z,34.60
2018-08-22T21:41:48.622Z,36.57
2018-08-22T21:44:17.954Z,35.90
2018-08-22T21:46:46.480Z,37.63
2018-08-22T21:49:15.103Z,38.60
2018-08-22T21:51:43.102Z,37.70
2018-08-22T21:54:11.550Z,39.07
2018-08-22T21:56:39.434Z,39.10
2018-08-22T21:59:07.952Z,39.10
2018-08-22T22:01:44.468Z,38.93
2018-08-22T22:04:13.697Z,40.27
2018-08-22T22:06:41.202Z,40.37
2018-08-22T22:09:08.737Z,39.83
2018-08-22T22:11:36.245Z,41.17
2018-08-22T22:14:10.660Z,39.07
2018-08-22T22:16:38.217Z,42.87
2018-08-22T22:19:05.742Z,43.47
2018-08-22T22:21:33.209Z,43.83
2018-08-22T22:24:00.701Z,42.30
2018-08-22T22:26:28.352Z,43.00
2018-08-22T22:28:56.486Z,44.77
2018-08-22T22:31:23.996Z,43.33
2018-08-22T22:33:58.340Z,44.60
2018-08-22T22:36:25.881Z,43.50
2018-08-22T22:38:53.420Z,45.27
2018-08-22T22:41:24.112Z,44.37
2018-08-22T22:43:51.873Z,46.53
2018-08-22T22:46:19.452Z,47.90
2018-08-22T22:48:46.977Z,46.90
2018-08-22T22:51:14.468Z,46.90
2018-08-22T22:53:41.909Z,47.10
2018-08-22T22:56:09.409Z,48.50
2018-08-22T22:58:37.516Z,49.30
2018-08-22T23:01:05.702Z,47.40
2018-08-22T23:03:33.223Z,46.23
2018-08-22T23:06:00.744Z,46.57
2018-08-22T23:08:28.383Z,47.27
2018-08-22T23:10:56.640Z,50.67
2018-08-22T23:13:24.817Z,46.53
2018-08-22T23:15:52.383Z,47.57
2018-08-22T23:18:19.915Z,47.30
2018-08-22T23:20:47.400Z,49.00
2018-08-22T23:23:41.141Z,49.40
2018-08-22T23:26:18.767Z,48.27
2018-08-22T23:28:46.229Z,49.97
2018-08-22T23:31:17.417Z,47.93
2018-08-22T23:33:44.915Z,51.43
2018-08-22T23:36:12.365Z,51.60
2018-08-22T23:38:39.863Z,46.93
2018-08-22T23:41:07.309Z,51.70
2018-08-22T23:43:50.147Z,50.00
2018-08-22T23:46:17.754Z,50.33
2018-08-22T23:48:49.942Z,51.60
2018-08-22T23:51:17.439Z,50.97
2018-08-22T23:53:48.297Z,51.63
2018-08-22T23:56:21.759Z,49.83
2018-08-22T23:58:50.075Z,51.00
